createdAt,value
2023-04-17T00:00:06.273Z,99.45
2023-04-17T00:01:06.362Z,99.55
2023-04-17T00:02:06.437Z,99.55
2023-04-17T00:03:06.679Z,99.55
2023-04-17T00:04:06.672Z,99.55
2023-04-17T00:05:06.693Z,99.55
2023-04-17T00:06:06.733Z,99.55
2023-04-17T00:07:06.799Z,99.60
2023-04-17T00:08:06.928Z,99.70
2023-04-17T00:09:07.006Z,99.70
2023-04-17T00:10:07.071Z,99.70
2023-04-17T00:11:08.843Z,99.70
2023-04-17T00:12:07.205Z,99.80
2023-04-17T00:13:07.283Z,99.91
2023-04-17T00:14:07.353Z,99.91
2023-04-17T00:15:07.408Z,99.91
2023-04-17T00:16:07.517Z,99.91
2023-04-17T00:17:07.592Z,99.99
2023-04-17T00:18:07.708Z,99.99
2023-04-17T00:19:07.772Z,99.99
2023-04-17T00:20:07.861Z,99.99
2023-04-17T00:21:07.915Z,99.99
2023-04-17T00:22:08.005Z,99.99
2023-04-17T00:23:08.085Z,99.99
2023-04-17T00:24:08.141Z,99.91
2023-04-17T00:25:08.221Z,99.99
2023-04-17T00:26:08.285Z,99.99
2023-04-17T00:27:08.354Z,99.99
2023-04-17T00:28:08.457Z,99.91
2023-04-17T00:29:08.575Z,99.91
2023-04-17T00:30:08.616Z,99.99
2023-04-17T00:31:08.683Z,99.99
2023-04-17T00:32:08.949Z,99.99
2023-04-17T00:33:08.975Z,99.99
2023-04-17T00:34:08.927Z,99.91
2023-04-17T00:35:08.998Z,99.91
2023-04-17T00:36:09.074Z,99.91
2023-04-17T00:37:09.139Z,99.91
2023-04-17T00:38:09.227Z,99.91
2023-04-17T00:39:09.480Z,99.99
2023-04-17T00:40:09.366Z,99.99
2023-04-17T00:41:09.434Z,99.99
2023-04-17T00:42:09.519Z,99.99
2023-04-17T00:43:09.603Z,99.99
2023-04-17T00:44:09.656Z,99.99
2023-04-17T00:45:09.740Z,99.99
2023-04-17T00:46:09.890Z,99.99
2023-04-17T00:47:09.903Z,99.99
2023-04-17T00:48:09.979Z,99.99
2023-04-17T00:49:10.202Z,99.99
2023-04-17T00:50:10.153Z,99.99
2023-04-17T00:51:10.224Z,99.99
2023-04-17T00:52:10.298Z,99.99
2023-04-17T00:53:10.384Z,99.91
2023-04-17T00:54:10.438Z,99.99
2023-04-17T00:55:10.520Z,99.99
2023-04-17T00:56:10.602Z,99.91
2023-04-17T00:57:10.704Z,99.99
2023-04-17T00:58:10.791Z,99.91
2023-04-17T00:59:11.227Z,99.91
2023-04-17T01:00:10.952Z,99.80
2023-04-17T01:01:11.085Z,99.70
2023-04-17T01:02:11.217Z,99.80
2023-04-17T01:03:11.463Z,99.80
2023-04-17T01:04:11.475Z,99.80
2023-04-17T01:05:11.399Z,99.80
2023-04-17T01:06:11.466Z,99.91
2023-04-17T01:07:11.539Z,99.91
2023-04-17T01:08:11.635Z,99.91
2023-04-17T01:09:12.001Z,99.91
2023-04-17T01:10:11.803Z,99.91
2023-04-17T01:11:11.913Z,99.91
2023-04-17T01:12:11.987Z,99.91
2023-04-17T01:13:12.095Z,99.91
2023-04-17T01:14:12.138Z,99.91
2023-04-17T01:15:12.234Z,99.99
2023-04-17T01:16:12.346Z,99.99
2023-04-17T01:17:12.553Z,99.91
2023-04-17T01:18:12.623Z,99.99
2023-04-17T01:19:12.740Z,99.99
2023-04-17T01:20:12.629Z,99.99
2023-04-17T01:21:12.710Z,99.99
2023-04-17T01:22:12.769Z,99.99
2023-04-17T01:23:12.886Z,99.99
2023-04-17T01:24:12.919Z,99.99
2023-04-17T01:25:12.994Z,99.99
2023-04-17T01:26:13.067Z,99.99
2023-04-17T01:27:13.159Z,99.99
2023-04-17T01:28:13.256Z,99.99
2023-04-17T01:29:13.616Z,99.99
2023-04-17T01:30:13.425Z,99.99
2023-04-17T01:31:13.594Z,99.99
2023-04-17T01:32:13.584Z,99.99
2023-04-17T01:33:13.684Z,99.99
2023-04-17T01:34:13.746Z,99.99
2023-04-17T01:35:13.854Z,99.99
2023-04-17T01:36:13.902Z,99.99
2023-04-17T01:37:13.995Z,99.99
2023-04-17T01:38:14.089Z,99.99
2023-04-17T01:39:14.255Z,99.99
2023-04-17T01:40:14.202Z,99.99
2023-04-17T01:41:14.312Z,99.99
2023-04-17T01:42:14.380Z,99.99
2023-04-17T01:43:14.492Z,99.99
2023-04-17T01:44:14.534Z,99.99
2023-04-17T01:45:14.635Z,99.99
2023-04-17T01:46:14.766Z,99.99
2023-04-17T01:47:14.807Z,99.99
2023-04-17T01:48:14.881Z,99.99
2023-04-17T01:49:14.942Z,99.99
2023-04-17T01:50:15.001Z,99.99
2023-04-17T01:51:15.092Z,99.99
2023-04-17T01:52:15.175Z,99.99
2023-04-17T01:53:15.311Z,99.99
2023-04-17T01:54:15.459Z,99.99
2023-04-17T01:55:15.424Z,99.99
2023-04-17T01:56:15.506Z,99.99
2023-04-17T01:57:15.582Z,99.99
2023-04-17T01:58:15.678Z,99.99
2023-04-17T01:59:15.772Z,99.99
2023-04-17T02:00:15.830Z,99.99
2023-04-17T02:01:15.933Z,99.99
2023-04-17T02:02:16.125Z,99.99
2023-04-17T02:03:16.193Z,99.99
2023-04-17T02:04:16.262Z,99.99
2023-04-17T02:05:16.227Z,99.99
2023-04-17T02:06:16.317Z,99.99
2023-04-17T02:07:16.392Z,99.99
2023-04-17T02:08:16.472Z,99.99
2023-04-17T02:09:16.567Z,99.99
2023-04-17T02:10:16.611Z,99.99
2023-04-17T02:11:16.698Z,99.99
2023-04-17T02:12:16.764Z,99.99
2023-04-17T02:13:16.884Z,99.99
2023-04-17T02:14:16.954Z,99.99
2023-04-17T02:15:17.039Z,99.99
2023-04-17T02:16:17.196Z,99.99
2023-04-17T02:17:17.306Z,99.99
2023-04-17T02:18:17.294Z,99.99
2023-04-17T02:19:17.344Z,99.99
2023-04-17T02:20:17.429Z,99.99
2023-04-17T02:21:17.526Z,99.99
2023-04-17T02:22:17.596Z,99.99
2023-04-17T02:23:17.709Z,99.99
2023-04-17T02:24:17.776Z,99.99
2023-04-17T02:25:17.857Z,99.99
2023-04-17T02:26:17.931Z,99.99
2023-04-17T02:27:18.018Z,99.99
2023-04-17T02:28:18.119Z,99.99
2023-04-17T02:29:18.208Z,99.99
2023-04-17T02:30:18.282Z,99.99
2023-04-17T02:31:18.392Z,99.99
2023-04-17T02:32:18.485Z,99.99
2023-04-17T02:33:18.550Z,99.99
2023-04-17T02:34:18.618Z,99.99
2023-04-17T02:35:18.704Z,99.99
2023-04-17T02:36:18.799Z,99.99
2023-04-17T02:37:18.889Z,99.99
2023-04-17T02:38:19.000Z,99.99
2023-04-17T02:39:19.056Z,99.99
2023-04-17T02:40:19.109Z,99.99
2023-04-17T02:41:19.200Z,99.99
2023-04-17T02:42:19.275Z,99.99
2023-04-17T02:43:19.394Z,99.99
2023-04-17T02:44:19.450Z,99.99
2023-04-17T02:45:19.529Z,99.99
2023-04-17T02:46:19.652Z,99.99
2023-04-17T02:47:19.781Z,99.99
2023-04-17T02:48:19.805Z,99.99
2023-04-17T02:49:19.881Z,99.99
2023-04-17T02:50:19.942Z,99.99
2023-04-17T02:51:20.010Z,99.99
2023-04-17T02:52:20.089Z,99.99
2023-04-17T02:53:20.190Z,99.99
2023-04-17T02:54:20.265Z,99.99
2023-04-17T02:55:20.328Z,99.99
2023-04-17T02:56:20.426Z,99.99
2023-04-17T02:57:20.514Z,99.99
2023-04-17T02:58:20.628Z,99.99
2023-04-17T02:59:20.677Z,99.99
2023-04-17T03:00:20.788Z,99.99
2023-04-17T03:01:20.904Z,99.99
2023-04-17T03:02:21.154Z,99.99
2023-04-17T03:03:21.184Z,99.99
2023-04-17T03:04:21.207Z,99.99
2023-04-17T03:05:21.155Z,99.99
2023-04-17T03:06:21.228Z,99.99
2023-04-17T03:07:21.311Z,99.99
2023-04-17T03:08:21.424Z,99.99
2023-04-17T03:09:21.467Z,99.99
2023-04-17T03:10:21.536Z,99.99
2023-04-17T03:11:21.618Z,99.99
2023-04-17T03:12:21.691Z,99.99
2023-04-17T03:13:21.785Z,99.99
2023-04-17T03:14:21.865Z,99.99
2023-04-17T03:15:21.917Z,99.99
2023-04-17T03:16:22.067Z,99.99
2023-04-17T03:17:22.100Z,99.99
2023-04-17T03:18:22.181Z,99.99
2023-04-17T03:19:22.243Z,99.99
2023-04-17T03:20:22.335Z,99.99
2023-04-17T03:21:22.406Z,99.99
2023-04-17T03:22:22.504Z,99.99
2023-04-17T03:23:22.629Z,99.99
2023-04-17T03:24:22.676Z,99.99
2023-04-17T03:25:22.759Z,99.99
2023-04-17T03:26:22.838Z,99.99
2023-04-17T03:27:22.919Z,99.99
2023-04-17T03:28:23.049Z,99.99
2023-04-17T03:29:23.090Z,99.99
2023-04-17T03:30:23.179Z,99.99
2023-04-17T03:31:24.396Z,99.99
2023-04-17T03:32:23.367Z,99.99
2023-04-17T03:33:23.448Z,99.99
2023-04-17T03:34:23.540Z,99.99
2023-04-17T03:35:23.615Z,99.99
2023-04-17T03:36:23.693Z,99.99
2023-04-17T03:37:23.775Z,99.99
2023-04-17T03:38:23.864Z,99.99
2023-04-17T03:39:23.934Z,99.99
2023-04-17T03:40:24.026Z,99.99
2023-04-17T03:41:24.118Z,99.99
2023-04-17T03:42:24.212Z,99.99
2023-04-17T03:43:24.309Z,99.99
2023-04-17T03:44:24.391Z,99.99
2023-04-17T03:45:24.473Z,99.99
2023-04-17T03:46:24.630Z,99.99
2023-04-17T03:47:24.685Z,99.99
2023-04-17T03:48:24.770Z,99.99
2023-04-17T03:49:24.811Z,99.99
2023-04-17T03:50:24.911Z,99.99
2023-04-17T03:51:24.995Z,99.99
2023-04-17T03:52:25.091Z,99.99
2023-04-17T03:53:25.203Z,99.99
2023-04-17T03:54:25.264Z,99.99
2023-04-17T03:55:25.335Z,99.99
2023-04-17T03:56:25.428Z,99.99
2023-04-17T03:57:25.508Z,99.99
2023-04-17T03:58:25.632Z,99.99
2023-04-17T03:59:25.679Z,99.99
2023-04-17T04:00:25.773Z,99.99
2023-04-17T04:01:25.876Z,99.99
2023-04-17T04:02:26.063Z,99.99
2023-04-17T04:03:26.269Z,99.99
2023-04-17T04:04:26.329Z,99.99
2023-04-17T04:05:26.272Z,99.99
2023-04-17T04:06:26.285Z,99.99
2023-04-17T04:07:26.368Z,99.99
2023-04-17T04:08:26.476Z,99.99
2023-04-17T04:09:26.530Z,99.99
2023-04-17T04:10:26.628Z,99.99
2023-04-17T04:11:26.709Z,99.99
2023-04-17T04:12:26.808Z,99.99
2023-04-17T04:13:26.916Z,99.99
2023-04-17T04:14:26.994Z,99.99
2023-04-17T04:15:27.082Z,99.99
2023-04-17T04:16:27.215Z,99.99
2023-04-17T04:17:27.260Z,99.99
2023-04-17T04:18:27.346Z,99.99
2023-04-17T04:19:27.388Z,99.99
2023-04-17T04:20:27.516Z,99.99
2023-04-17T04:21:27.560Z,99.99
2023-04-17T04:22:27.654Z,99.99
2023-04-17T04:23:27.720Z,99.99
2023-04-17T04:24:27.789Z,99.99
2023-04-17T04:25:27.878Z,99.99
2023-04-17T04:26:27.924Z,99.99
2023-04-17T04:27:28.006Z,99.99
2023-04-17T04:28:28.271Z,99.99
2023-04-17T04:29:28.144Z,99.99
2023-04-17T04:30:28.239Z,99.99
2023-04-17T04:31:28.360Z,99.99
2023-04-17T04:32:28.402Z,99.99
2023-04-17T04:33:28.479Z,99.99
2023-04-17T04:34:28.543Z,99.99
2023-04-17T04:35:28.629Z,99.99
2023-04-17T04:36:28.733Z,99.99
2023-04-17T04:37:28.796Z,99.99
2023-04-17T04:38:28.895Z,99.99
2023-04-17T04:39:28.948Z,99.99
2023-04-17T04:40:29.036Z,99.99
2023-04-17T04:41:29.116Z,99.99
2023-04-17T04:42:29.236Z,99.99
2023-04-17T04:43:29.316Z,99.99
2023-04-17T04:44:29.397Z,99.99
2023-04-17T04:45:29.479Z,99.99
2023-04-17T04:46:29.596Z,99.99
2023-04-17T04:47:29.668Z,99.99
2023-04-17T04:48:29.754Z,99.99
2023-04-17T04:49:29.807Z,99.99
2023-04-17T04:50:29.909Z,99.99
2023-04-17T04:51:29.971Z,99.99
2023-04-17T04:52:30.059Z,99.99
2023-04-17T04:53:30.144Z,99.99
2023-04-17T04:54:30.182Z,99.99
2023-04-17T04:55:30.265Z,99.99
2023-04-17T04:56:32.360Z,99.99
2023-04-17T04:57:30.430Z,99.99
2023-04-17T04:58:30.496Z,99.99
2023-04-17T04:59:30.586Z,99.99
2023-04-17T05:00:30.651Z,99.99
2023-04-17T05:01:30.807Z,99.99
2023-04-17T05:02:30.960Z,99.99
2023-04-17T05:03:31.048Z,99.99
2023-04-17T05:04:31.095Z,99.99
2023-04-17T05:05:31.102Z,99.99
2023-04-17T05:06:31.178Z,99.99
2023-04-17T05:07:31.266Z,99.99
2023-04-17T05:08:31.357Z,99.99
2023-04-17T05:09:31.453Z,99.99
2023-04-17T05:10:31.556Z,99.99
2023-04-17T05:11:31.592Z,99.99
2023-04-17T05:12:31.667Z,99.99
2023-04-17T05:13:31.764Z,99.99
2023-04-17T05:14:31.808Z,99.99
2023-04-17T05:15:31.893Z,99.99
2023-04-17T05:16:32.011Z,99.99
2023-04-17T05:17:32.103Z,99.99
2023-04-17T05:18:32.186Z,99.99
2023-04-17T05:19:32.260Z,99.99
2023-04-17T05:20:32.349Z,99.99
2023-04-17T05:21:32.458Z,99.99
2023-04-17T05:22:32.542Z,99.99
2023-04-17T05:23:32.683Z,99.99
2023-04-17T05:24:32.704Z,99.99
2023-04-17T05:25:32.763Z,99.99
2023-04-17T05:26:32.827Z,99.99
2023-04-17T05:27:32.945Z,99.80
2023-04-17T05:28:33.012Z,99.80
2023-04-17T05:29:33.086Z,99.70
2023-04-17T05:30:33.170Z,99.95
2023-04-17T05:31:33.286Z,99.99
2023-04-17T05:32:33.372Z,99.80
2023-04-17T05:33:33.441Z,99.80
2023-04-17T05:34:33.510Z,99.70
2023-04-17T05:35:33.589Z,99.70
2023-04-17T05:36:33.664Z,99.80
2023-04-17T05:37:33.734Z,99.85
2023-04-17T05:38:33.836Z,99.80
2023-04-17T05:39:33.908Z,99.80
2023-04-17T05:40:33.981Z,99.75
2023-04-17T05:41:34.081Z,99.70
2023-04-17T05:42:34.138Z,99.65
2023-04-17T05:43:34.287Z,99.80
2023-04-17T05:44:34.286Z,99.75
2023-04-17T05:45:34.406Z,99.85
2023-04-17T05:46:34.429Z,99.91
2023-04-17T05:47:34.569Z,99.91
2023-04-17T05:48:34.624Z,99.60
2023-04-17T05:49:34.701Z,99.60
2023-04-17T05:50:34.765Z,99.70
2023-04-17T05:51:34.835Z,99.65
2023-04-17T05:52:35.048Z,99.85
2023-04-17T05:53:35.026Z,99.70
2023-04-17T05:54:35.049Z,99.75
2023-04-17T05:55:35.135Z,99.85
2023-04-17T05:56:35.200Z,99.70
2023-04-17T05:57:35.286Z,99.60
2023-04-17T05:58:35.389Z,99.65
2023-04-17T05:59:35.439Z,99.75
2023-04-17T06:00:35.497Z,99.85
2023-04-17T06:01:35.560Z,99.70
2023-04-17T06:02:35.805Z,99.50
2023-04-17T06:03:35.920Z,99.40
2023-04-17T06:04:36.058Z,99.70
2023-04-17T06:05:35.971Z,99.50
2023-04-17T06:06:35.930Z,99.50
2023-04-17T06:07:36.005Z,99.40
2023-04-17T06:08:36.086Z,99.40
2023-04-17T06:09:36.156Z,99.40
2023-04-17T06:10:36.218Z,99.40
2023-04-17T06:11:36.295Z,99.19
2023-04-17T06:12:36.350Z,98.99
2023-04-17T06:13:36.473Z,98.78
2023-04-17T06:14:36.536Z,98.99
2023-04-17T06:15:36.639Z,99.29
2023-04-17T06:16:36.719Z,99.19
2023-04-17T06:17:36.774Z,99.19
2023-04-17T06:18:36.848Z,99.29
2023-04-17T06:19:36.923Z,99.09
2023-04-17T06:20:39.424Z,98.88
2023-04-17T06:21:37.073Z,98.99
2023-04-17T06:22:37.136Z,98.99
2023-04-17T06:23:37.256Z,98.78
2023-04-17T06:24:37.294Z,98.88
2023-04-17T06:25:37.384Z,98.99
2023-04-17T06:26:37.471Z,99.09
2023-04-17T06:27:37.572Z,98.88
2023-04-17T06:28:37.656Z,98.78
2023-04-17T06:29:37.768Z,98.78
2023-04-17T06:30:37.929Z,98.58
2023-04-17T06:31:37.971Z,98.68
2023-04-17T06:32:38.054Z,98.68
2023-04-17T06:33:38.103Z,98.68
2023-04-17T06:34:46.086Z,98.88
2023-04-17T06:35:38.266Z,98.68
2023-04-17T06:36:38.311Z,98.68
2023-04-17T06:37:38.387Z,98.58
2023-04-17T06:38:38.549Z,98.58
2023-04-17T06:39:38.571Z,98.47
2023-04-17T06:40:38.641Z,98.47
2023-04-17T06:41:38.720Z,98.37
2023-04-17T06:42:38.809Z,98.37
2023-04-17T06:43:38.916Z,98.68
2023-04-17T06:44:38.976Z,98.58
2023-04-17T06:45:39.055Z,98.63
2023-04-17T06:46:39.158Z,98.63
2023-04-17T06:47:39.223Z,98.74
2023-04-17T06:48:39.295Z,98.63
2023-04-17T06:49:39.372Z,98.43
2023-04-17T06:50:39.445Z,98.12
2023-04-17T06:51:39.531Z,97.97
2023-04-17T06:52:39.593Z,97.87
2023-04-17T06:53:39.680Z,98.07
2023-04-17T06:54:39.728Z,98.18
2023-04-17T06:55:39.803Z,98.07
2023-04-17T06:56:39.868Z,98.07
2023-04-17T06:57:39.942Z,97.87
2023-04-17T06:58:40.035Z,97.66
2023-04-17T06:59:40.106Z,97.46
2023-04-17T07:00:40.174Z,96.95
2023-04-17T07:01:40.327Z,96.64
2023-04-17T07:02:40.376Z,96.54
2023-04-17T07:03:40.762Z,96.33
2023-04-17T07:04:40.480Z,95.72
2023-04-17T07:05:40.571Z,95.62
2023-04-17T07:06:40.616Z,95.62
2023-04-17T07:07:40.673Z,95.41
2023-04-17T07:08:40.786Z,95.31
2023-04-17T07:09:40.841Z,95.21
2023-04-17T07:10:40.909Z,95.21
2023-04-17T07:11:41.000Z,95.41
2023-04-17T07:12:41.075Z,95.51
2023-04-17T07:13:41.198Z,94.90
2023-04-17T07:14:41.246Z,94.59
2023-04-17T07:15:41.491Z,94.39
2023-04-17T07:16:41.449Z,94.18
2023-04-17T07:17:41.548Z,94.18
2023-04-17T07:18:41.594Z,93.98
2023-04-17T07:19:41.651Z,93.98
2023-04-17T07:20:41.747Z,94.23
2023-04-17T07:21:41.838Z,94.33
2023-04-17T07:22:41.907Z,94.64
2023-04-17T07:23:41.997Z,94.33
2023-04-17T07:24:42.058Z,94.02
2023-04-17T07:25:42.157Z,94.02
2023-04-17T07:26:42.243Z,93.98
2023-04-17T07:27:42.323Z,93.98
2023-04-17T07:28:42.424Z,93.98
2023-04-17T07:29:42.437Z,93.77
2023-04-17T07:30:42.541Z,93.67
2023-04-17T07:31:42.669Z,93.47
2023-04-17T07:32:42.700Z,93.47
2023-04-17T07:33:42.813Z,93.62
2023-04-17T07:34:42.869Z,93.82
2023-04-17T07:35:42.943Z,93.82
2023-04-17T07:36:43.045Z,93.62
2023-04-17T07:37:43.135Z,93.71
2023-04-17T07:38:43.185Z,93.92
2023-04-17T07:39:43.277Z,93.92
2023-04-17T07:40:43.351Z,93.71
2023-04-17T07:41:43.526Z,93.51
2023-04-17T07:42:43.513Z,93.51
2023-04-17T07:43:43.751Z,93.62
2023-04-17T07:44:43.678Z,93.71
2023-04-17T07:45:43.784Z,93.41
2023-04-17T07:46:43.869Z,93.10
2023-04-17T07:47:43.995Z,93.00
2023-04-17T07:48:44.008Z,92.85
2023-04-17T07:49:44.118Z,92.90
2023-04-17T07:50:44.157Z,93.20
2023-04-17T07:51:44.266Z,93.51
2023-04-17T07:52:44.304Z,93.37
2023-04-17T07:53:44.415Z,93.16
2023-04-17T07:54:44.466Z,93.16
2023-04-17T07:55:44.553Z,93.10
2023-04-17T07:56:44.643Z,93.30
2023-04-17T07:57:44.747Z,93.16
2023-04-17T07:58:44.814Z,93.06
2023-04-17T07:59:44.944Z,92.96
2023-04-17T08:00:44.988Z,93.16
2023-04-17T08:01:45.123Z,93.06
2023-04-17T08:02:45.309Z,93.06
2023-04-17T08:03:45.590Z,92.85
2023-04-17T08:04:45.511Z,92.55
2023-04-17T08:05:45.436Z,92.34
2023-04-17T08:06:45.492Z,92.24
2023-04-17T08:07:45.565Z,92.44
2023-04-17T08:08:45.647Z,92.10
2023-04-17T08:09:45.721Z,92.19
2023-04-17T08:10:45.798Z,91.89
2023-04-17T08:11:56.144Z,91.78
2023-04-17T08:12:45.965Z,91.38
2023-04-17T08:13:46.067Z,91.23
2023-04-17T08:14:46.131Z,91.64
2023-04-17T08:15:46.217Z,91.74
2023-04-17T08:16:46.302Z,90.92
2023-04-17T08:17:46.394Z,91.03
2023-04-17T08:18:46.492Z,91.13
2023-04-17T08:19:46.518Z,90.92
2023-04-17T08:20:46.611Z,90.88
2023-04-17T08:21:46.671Z,91.09
2023-04-17T08:22:46.762Z,90.64
2023-04-17T08:23:46.889Z,89.61
2023-04-17T08:24:46.967Z,89.41
2023-04-17T08:25:47.021Z,88.59
2023-04-17T08:26:47.130Z,88.85
2023-04-17T08:27:47.191Z,88.65
2023-04-17T08:28:47.247Z,88.20
2023-04-17T08:29:47.308Z,87.35
2023-04-17T08:30:47.469Z,86.94
2023-04-17T08:31:47.523Z,86.22
2023-04-17T08:32:47.628Z,86.43
2023-04-17T08:33:47.688Z,85.88
2023-04-17T08:34:47.735Z,86.08
2023-04-17T08:35:47.828Z,85.16
2023-04-17T08:36:47.955Z,84.96
2023-04-17T08:37:48.023Z,85.27
2023-04-17T08:38:48.088Z,84.96
2023-04-17T08:39:48.179Z,85.16
2023-04-17T08:40:48.259Z,84.45
2023-04-17T08:41:48.349Z,84.86
2023-04-17T08:42:48.426Z,84.80
2023-04-17T08:43:48.549Z,84.80
2023-04-17T08:44:48.604Z,84.90
2023-04-17T08:45:48.742Z,84.80
2023-04-17T08:46:48.786Z,85.75
2023-04-17T08:47:48.896Z,86.36
2023-04-17T08:48:50.112Z,85.86
2023-04-17T08:49:49.055Z,86.06
2023-04-17T08:50:49.139Z,85.49
2023-04-17T08:51:49.241Z,85.69
2023-04-17T08:52:49.324Z,86.20
2023-04-17T08:53:49.442Z,86.71
2023-04-17T08:54:51.323Z,87.12
2023-04-17T08:55:49.609Z,86.71
2023-04-17T08:56:49.676Z,86.51
2023-04-17T08:57:49.779Z,86.26
2023-04-17T08:58:49.891Z,86.16
2023-04-17T08:59:49.955Z,86.22
2023-04-17T09:00:50.017Z,86.12
2023-04-17T09:01:50.158Z,85.77
2023-04-17T09:02:50.321Z,84.34
2023-04-17T09:03:50.422Z,83.70
2023-04-17T09:04:50.451Z,82.29
2023-04-17T09:05:50.453Z,82.15
2023-04-17T09:06:50.515Z,81.04
2023-04-17T09:07:51.895Z,80.02
2023-04-17T09:08:50.748Z,80.32
2023-04-17T09:09:50.779Z,80.22
2023-04-17T09:10:50.911Z,81.34
2023-04-17T09:11:50.922Z,80.93
2023-04-17T09:12:51.006Z,80.22
2023-04-17T09:13:51.086Z,80.83
2023-04-17T09:14:51.154Z,81.24
2023-04-17T09:15:51.236Z,81.27
2023-04-17T09:16:51.297Z,80.66
2023-04-17T09:17:51.375Z,80.56
2023-04-17T09:18:51.470Z,79.64
2023-04-17T09:19:51.504Z,79.58
2023-04-17T09:20:51.585Z,81.48
2023-04-17T09:21:51.644Z,81.58
2023-04-17T09:22:51.716Z,81.58
2023-04-17T09:23:51.803Z,81.27
2023-04-17T09:24:51.891Z,81.58
2023-04-17T09:25:51.974Z,81.17
2023-04-17T09:26:52.057Z,81.68
2023-04-17T09:27:52.119Z,81.68
2023-04-17T09:28:52.224Z,81.38
2023-04-17T09:29:52.238Z,80.46
2023-04-17T09:30:52.348Z,79.50
2023-04-17T09:31:52.456Z,79.41
2023-04-17T09:32:52.523Z,79.10
2023-04-17T09:33:52.613Z,79.20
2023-04-17T09:34:52.644Z,79.20
2023-04-17T09:35:52.813Z,79.16
2023-04-17T09:36:52.811Z,77.84
2023-04-17T09:37:52.907Z,78.15
2023-04-17T09:38:52.971Z,77.94
2023-04-17T09:39:53.017Z,78.11
2023-04-17T09:40:53.122Z,77.29
2023-04-17T09:41:53.177Z,76.25
2023-04-17T09:42:53.277Z,76.55
2023-04-17T09:43:53.400Z,77.56
2023-04-17T09:44:53.406Z,77.53
2023-04-17T09:45:53.497Z,77.53
2023-04-17T09:46:53.680Z,76.72
2023-04-17T09:47:53.768Z,76.31
2023-04-17T09:48:53.810Z,76.68
2023-04-17T09:49:53.871Z,75.67
2023-04-17T09:50:54.470Z,75.02
2023-04-17T09:51:54.049Z,75.05
2023-04-17T09:52:54.146Z,74.75
2023-04-17T09:53:54.246Z,74.65
2023-04-17T09:54:54.305Z,74.14
2023-04-17T09:55:54.364Z,74.48
2023-04-17T09:56:54.451Z,74.72
2023-04-17T09:57:54.521Z,76.04
2023-04-17T09:58:54.641Z,76.07
2023-04-17T09:59:54.703Z,75.87
2023-04-17T10:00:54.802Z,76.28
2023-04-17T10:01:54.903Z,76.55
2023-04-17T10:02:55.037Z,73.87
2023-04-17T10:03:55.166Z,72.08
2023-04-17T10:04:55.114Z,69.04
2023-04-17T10:05:55.418Z,68.67
2023-04-17T10:06:55.301Z,67.60
2023-04-17T10:07:55.373Z,66.89
2023-04-17T10:08:55.473Z,65.70
2023-04-17T10:09:55.531Z,66.67
2023-04-17T10:10:55.626Z,68.73
2023-04-17T10:11:55.722Z,69.88
2023-04-17T10:12:55.822Z,69.41
2023-04-17T10:13:55.900Z,70.52
2023-04-17T10:14:55.973Z,70.05
2023-04-17T10:15:56.068Z,70.86
2023-04-17T10:16:56.199Z,70.35
2023-04-17T10:17:56.279Z,70.83
2023-04-17T10:18:56.312Z,71.47
2023-04-17T10:19:56.366Z,71.40
2023-04-17T10:20:56.470Z,71.60
2023-04-17T10:21:56.555Z,71.84
2023-04-17T10:22:56.663Z,71.84
2023-04-17T10:23:56.906Z,72.17
2023-04-17T10:24:56.822Z,71.88
2023-04-17T10:25:56.878Z,72.08
2023-04-17T10:26:56.983Z,70.96
2023-04-17T10:27:57.042Z,70.65
2023-04-17T10:28:57.147Z,70.72
2023-04-17T10:29:57.174Z,70.79
2023-04-17T10:30:57.257Z,69.64
2023-04-17T10:31:57.371Z,68.43
2023-04-17T10:32:57.512Z,68.73
2023-04-17T10:33:57.629Z,67.89
2023-04-17T10:34:57.625Z,68.66
2023-04-17T10:35:57.690Z,69.34
2023-04-17T10:36:57.770Z,69.78
2023-04-17T10:37:57.814Z,67.62
2023-04-17T10:38:57.923Z,67.18
2023-04-17T10:39:57.944Z,66.88
2023-04-17T10:41:00.001Z,66.07
2023-04-17T10:41:58.112Z,65.77
2023-04-17T10:42:58.196Z,65.56
2023-04-17T10:43:58.315Z,65.87
2023-04-17T10:44:58.398Z,66.07
2023-04-17T10:45:58.539Z,63.87
2023-04-17T10:46:58.549Z,64.92
2023-04-17T10:47:58.773Z,64.51
2023-04-17T10:48:58.772Z,65.22
2023-04-17T10:49:58.759Z,66.13
2023-04-17T10:50:58.836Z,66.91
2023-04-17T10:51:58.895Z,66.17
2023-04-17T10:52:58.973Z,63.81
2023-04-17T10:53:59.031Z,63.04
2023-04-17T10:54:59.122Z,64.04
2023-04-17T10:55:59.182Z,63.17
2023-04-17T10:56:59.248Z,64.28
2023-04-17T10:57:59.308Z,66.03
2023-04-17T10:58:59.410Z,65.73
2023-04-17T10:59:59.446Z,65.15
2023-04-17T11:00:59.576Z,65.76
2023-04-17T11:01:59.783Z,65.48
2023-04-17T11:02:59.732Z,65.21
2023-04-17T11:03:59.943Z,66.33
2023-04-17T11:04:59.926Z,67.24
2023-04-17T11:05:59.935Z,66.83
2023-04-17T11:07:00.031Z,66.43
2023-04-17T11:08:00.097Z,65.72
2023-04-17T11:09:00.198Z,65.92
2023-04-17T11:10:00.234Z,67.24
2023-04-17T11:11:00.341Z,66.60
2023-04-17T11:12:00.402Z,65.76
2023-04-17T11:13:00.493Z,64.44
2023-04-17T11:14:00.604Z,64.11
2023-04-17T11:15:00.679Z,65.32
2023-04-17T11:16:00.731Z,65.29
2023-04-17T11:17:00.931Z,64.65
2023-04-17T11:18:00.962Z,62.81
2023-04-17T11:19:01.043Z,61.19
2023-04-17T11:20:01.109Z,62.19
2023-04-17T11:21:01.185Z,61.39
2023-04-17T11:22:01.332Z,62.40
2023-04-17T11:23:01.383Z,62.02
2023-04-17T11:24:01.502Z,63.57
2023-04-17T11:25:01.586Z,63.60
2023-04-17T11:26:01.597Z,63.50
2023-04-17T11:27:01.689Z,62.92
2023-04-17T11:28:01.878Z,64.24
2023-04-17T11:29:02.488Z,64.17
2023-04-17T11:30:01.954Z,65.08
2023-04-17T11:31:02.043Z,64.78
2023-04-17T11:32:02.097Z,64.44
2023-04-17T11:33:02.235Z,63.43
2023-04-17T11:34:02.335Z,64.51
2023-04-17T11:35:02.349Z,63.27
2023-04-17T11:36:02.424Z,63.27
2023-04-17T11:37:02.538Z,61.21
2023-04-17T11:38:02.664Z,60.88
2023-04-17T11:39:02.738Z,60.98
2023-04-17T11:40:02.759Z,61.56
2023-04-17T11:41:02.870Z,61.63
2023-04-17T11:42:02.940Z,60.32
2023-04-17T11:43:03.043Z,59.84
2023-04-17T11:44:03.157Z,60.14
2023-04-17T11:45:04.552Z,59.47
2023-04-17T11:46:03.353Z,59.49
2023-04-17T11:47:03.395Z,60.50
2023-04-17T11:48:03.528Z,61.24
2023-04-17T11:49:03.592Z,60.74
2023-04-17T11:50:03.634Z,60.33
2023-04-17T11:51:03.768Z,60.74
2023-04-17T11:52:03.781Z,60.23
2023-04-17T11:53:03.896Z,60.30
2023-04-17T11:54:03.963Z,59.16
2023-04-17T11:55:04.073Z,59.34
2023-04-17T11:56:04.114Z,58.83
2023-04-17T11:57:04.212Z,58.73
2023-04-17T11:58:04.313Z,57.95
2023-04-17T11:59:04.407Z,58.56
2023-04-17T12:00:04.476Z,57.54
2023-04-17T12:01:04.639Z,58.05
2023-04-17T12:02:04.634Z,58.36
2023-04-17T12:03:04.772Z,57.62
2023-04-17T12:04:04.959Z,56.51
2023-04-17T12:05:05.079Z,56.91
2023-04-17T12:06:04.938Z,55.40
2023-04-17T12:07:05.056Z,55.47
2023-04-17T12:08:05.114Z,53.96
2023-04-17T12:09:05.216Z,55.98
2023-04-17T12:10:05.282Z,56.58
2023-04-17T12:11:05.367Z,54.86
2023-04-17T12:12:05.453Z,54.66
2023-04-17T12:13:05.528Z,54.96
2023-04-17T12:14:05.630Z,55.77
2023-04-17T12:15:05.710Z,54.28
2023-04-17T12:16:05.832Z,55.19
2023-04-17T12:17:06.465Z,54.58
2023-04-17T12:18:05.998Z,55.80
2023-04-17T12:19:06.069Z,55.09
2023-04-17T12:20:06.134Z,56.30
2023-04-17T12:21:06.219Z,57.11
2023-04-17T12:22:06.301Z,55.36
2023-04-17T12:23:06.395Z,56.07
2023-04-17T12:24:06.482Z,56.48
2023-04-17T12:25:06.538Z,55.54
2023-04-17T12:26:06.607Z,56.45
2023-04-17T12:27:06.692Z,56.32
2023-04-17T12:28:06.758Z,53.93
2023-04-17T12:29:06.850Z,54.56
2023-04-17T12:30:06.927Z,55.57
2023-04-17T12:31:07.004Z,55.07
2023-04-17T12:32:07.134Z,54.28
2023-04-17T12:33:07.211Z,54.31
2023-04-17T12:34:07.268Z,54.71
2023-04-17T12:35:07.344Z,54.94
2023-04-17T12:36:07.531Z,56.56
2023-04-17T12:37:07.513Z,56.66
2023-04-17T12:38:07.585Z,57.07
2023-04-17T12:39:07.669Z,56.56
2023-04-17T12:40:07.731Z,56.96
2023-04-17T12:41:07.829Z,56.46
2023-04-17T12:42:07.913Z,56.05
2023-04-17T12:43:07.992Z,56.36
2023-04-17T12:44:08.118Z,56.36
2023-04-17T12:45:08.158Z,55.98
2023-04-17T12:46:08.291Z,56.38
2023-04-17T12:47:08.326Z,56.18
2023-04-17T12:48:08.374Z,56.61
2023-04-17T12:49:08.484Z,56.31
2023-04-17T12:50:08.575Z,56.61
2023-04-17T12:51:08.625Z,57.12
2023-04-17T12:52:08.694Z,57.02
2023-04-17T12:53:09.025Z,56.92